Big Bear Station Historical Data
Daily Summary for March 14, 2017 Units:  English    Metric   Both
« Previous Day
Next Day »
Daily Weekly Monthly Yearly Custom
  High: Low: Average:
Temperature: 64.9 °F 30.2 °F 45.3 °F
Dew Point: 37.6 °F 24.7 °F 31 °F
Humidity: 97 % 24 % 66 %
Wind Speed: 6.8 mph 0.0 mph 1.4 mph
Wind Gust: -999.0 mph - -
Wind:- - WNW
Pressure: 30.34 in 30.31 in -
Precipitation: 0.00 in    
Historical Graphs
 
 
Tabular Data for March 14, 2017
Time Temperature Dew Point Pressure Wind Wind Speed Wind Gust Humidity Rainfall Rate (Hourly)
00:09 35.8 °F 30.2 °F 30.31 in Calm   -999.0 mph 80 % 0 in
00:24 35.2 °F 29.7 °F 30.31 in Calm   -999.0 mph 80 % 0 in
00:40 35.1 °F 30.2 °F 30.31 in Calm   -999.0 mph 82 % 0 in
00:55 34.7 °F 29.8 °F 30.31 in Calm   -999.0 mph 82 % 0 in
01:10 34.3 °F 29.7 °F 30.31 in Calm   -999.0 mph 83 % 0 in
01:25 34.5 °F 29.9 °F 30.31 in Calm   -999.0 mph 83 % 0 in
01:41 34.2 °F 29.6 °F 30.31 in Calm   -999.0 mph 83 % 0 in
01:56 33.6 °F 29.3 °F 30.31 in Calm   -999.0 mph 84 % 0 in
02:11 33.3 °F 29.3 °F 30.31 in Calm   -999.0 mph 85 % 0 in
02:26 32.9 °F 28.9 °F 30.31 in Calm   -999.0 mph 85 % 0 in
02:41 32.9 °F 28.9 °F 30.31 in Calm   -999.0 mph 85 % 0 in
02:57 32.7 °F 29.5 °F 30.31 in Calm   -999.0 mph 88 % 0 in
03:12 32.7 °F 29.5 °F 30.31 in Calm   -999.0 mph 88 % 0 in
03:27 32.2 °F 29.3 °F 30.31 in Calm   -999.0 mph 89 % 0 in
03:42 32.5 °F 29.6 °F 30.31 in Calm   -999.0 mph 89 % 0 in
03:57 32.0 °F 29.7 °F 30.31 in Calm   -999.0 mph 91 % 0 in
04:13 31.8 °F 29.5 °F 30.31 in Calm   -999.0 mph 91 % 0 in
04:28 32.0 °F 29.7 °F 30.31 in Calm   -999.0 mph 91 % 0 in
04:44 32.0 °F 30.2 °F 30.31 in Calm   -999.0 mph 93 % 0 in
04:59 31.5 °F 29.7 °F 30.31 in Calm   -999.0 mph 93 % 0 in
05:14 31.5 °F 30.0 °F 30.31 in Calm   -999.0 mph 94 % 0 in
05:29 31.5 °F 30.0 °F 30.31 in Calm   -999.0 mph 94 % 0 in
06:00 31.1 °F 29.8 °F 30.32 in Calm   -999.0 mph 95 % 0 in
06:15 30.9 °F 29.6 °F 30.32 in Calm   -999.0 mph 95 % 0 in
06:30 30.7 °F 29.4 °F 30.32 in Calm   -999.0 mph 95 % 0 in
06:45 30.6 °F 29.6 °F 30.32 in Calm   -999.0 mph 96 % 0 in
07:00 30.4 °F 29.4 °F 30.32 in Calm   -999.0 mph 96 % 0 in
07:16 30.2 °F 29.2 °F 30.33 in Calm   -999.0 mph 96 % 0 in
07:32 30.7 °F 29.7 °F 30.33 in Calm   -999.0 mph 96 % 0 in
07:47 30.7 °F 29.7 °F 30.33 in Calm   -999.0 mph 96 % 0 in
08:02 31.1 °F 30.3 °F 30.33 in Calm   -999.0 mph 97 % 0 in
08:17 32.0 °F 31.2 °F 30.33 in Calm   -999.0 mph 97 % 0 in
08:32 35.2 °F 33.9 °F 30.33 in Calm   -999.0 mph 95 % 0 in
08:48 35.2 °F 33.6 °F 30.34 in Calm   -999.0 mph 94 % 0 in
09:03 35.2 °F 32.8 °F 30.34 in Calm   -999.0 mph 91 % 0 in
09:18 35.8 °F 33.7 °F 30.34 in Calm   -999.0 mph 92 % 0 in
09:33 37.0 °F 34.3 °F 30.34 in WNW 1.7 mph -999.0 mph 90 % 0 in
09:49 39.4 °F 35.0 °F 30.34 in Calm   -999.0 mph 84 % 0 in
10:04 41.7 °F 35.7 °F 30.34 in Calm   -999.0 mph 79 % 0 in
10:19 44.2 °F 35.4 °F 30.34 in Calm   -999.0 mph 71 % 0 in
10:35 46.9 °F 37.6 °F 30.34 in NW 2.2 mph -999.0 mph 70 % 0 in
10:50 56.7 °F 26.4 °F 30.34 in NE 1.1 mph -999.0 mph 31 % 0 in
11:06 58.5 °F 29.5 °F 30.34 in NNW 4.7 mph -999.0 mph 33 % 0 in
11:21 61.9 °F 24.7 °F 30.34 in North 2.7 mph -999.0 mph 24 % 0 in
11:36 62.2 °F 31.2 °F 30.34 in NNW 2.7 mph -999.0 mph 31 % 0 in
11:51 62.6 °F 32.3 °F 30.34 in NW 1.1 mph -999.0 mph 32 % 0 in
12:07 63.9 °F 31.8 °F 30.33 in NW 2.2 mph -999.0 mph 30 % 0 in
12:22 63.7 °F 32.5 °F 30.33 in NW 3.2 mph -999.0 mph 31 % 0 in
12:37 63.9 °F 33.5 °F 30.33 in NW 3.2 mph -999.0 mph 32 % 0 in
12:52 63.7 °F 34.8 °F 30.33 in North 3.2 mph -999.0 mph 34 % 0 in
13:08 63.7 °F 32.5 °F 30.33 in WNW 3.7 mph -999.0 mph 31 % 0 in
13:23 64.4 °F 32.3 °F 30.32 in NNW 3.7 mph -999.0 mph 30 % 0 in
13:38 64.6 °F 29.9 °F 30.32 in NW 4.2 mph -999.0 mph 27 % 0 in
13:53 64.9 °F 30.1 °F 30.32 in NNW 5.8 mph -999.0 mph 27 % 0 in
14:09 63.5 °F 31.5 °F 30.32 in NNE 3.7 mph -999.0 mph 30 % 0 in
14:24 64.9 °F 31.9 °F 30.31 in NW 5.3 mph -999.0 mph 29 % 0 in
14:39 61.9 °F 32.5 °F 30.31 in NW 4.7 mph -999.0 mph 33 % 0 in
14:54 61.7 °F 33.0 °F 30.31 in NW 6.3 mph -999.0 mph 34 % 0 in
15:10 62.8 °F 31.7 °F 30.31 in SW 1.7 mph -999.0 mph 31 % 0 in
15:25 63.5 °F 33.1 °F 30.31 in NW 3.7 mph -999.0 mph 32 % 0 in
15:40 64.0 °F 31.9 °F 30.31 in NW 2.2 mph -999.0 mph 30 % 0 in
15:55 63.3 °F 32.1 °F 30.31 in WNW 2.7 mph -999.0 mph 31 % 0 in
16:11 62.2 °F 30.4 °F 30.31 in NW 6.8 mph -999.0 mph 30 % 0 in
16:26 61.3 °F 30.4 °F 30.31 in WSW 1.7 mph -999.0 mph 31 % 0 in
16:41 61.9 °F 31.7 °F 30.31 in South 2.2 mph -999.0 mph 32 % 0 in
16:56 61.7 °F 32.3 °F 30.31 in West 1.7 mph -999.0 mph 33 % 0 in
17:12 60.8 °F 33.0 °F 30.31 in NNW 2.2 mph -999.0 mph 35 % 0 in
17:27 62.1 °F 29.5 °F 30.31 in South 2.2 mph -999.0 mph 29 % 0 in
Big Bear CA Weather
Compliments of Weather Underground - 1.5 mb